createdAt,value
2022-11-24T00:00:13.822Z,371.38
2022-11-24T00:05:16.215Z,359.27
2022-11-24T00:10:18.574Z,353.90
2022-11-24T00:15:24.427Z,370.98
2022-11-24T00:20:27.489Z,371.85
2022-11-24T00:25:29.351Z,367.25
2022-11-24T00:30:33.349Z,352.25
2022-11-24T00:35:35.282Z,359.42
2022-11-24T00:40:38.182Z,344.27
2022-11-24T00:45:40.184Z,361.23
2022-11-24T00:50:44.332Z,357.27
2022-11-24T00:55:50.320Z,355.75
2022-11-24T01:00:53.340Z,333.92
2022-11-24T01:05:55.552Z,355.08
2022-11-24T01:11:11.224Z,357.98
2022-11-24T01:16:22.633Z,349.27
2022-11-24T01:21:25.345Z,337.00
2022-11-24T01:26:28.870Z,343.23
2022-11-24T01:31:32.849Z,351.75
2022-11-24T01:36:34.848Z,351.30
2022-11-24T01:41:40.298Z,355.48
2022-11-24T01:46:46.237Z,351.60
2022-11-24T01:51:53.216Z,342.88
2022-11-24T01:57:01.808Z,337.33
2022-11-24T02:02:07.946Z,361.90
2022-11-24T02:07:14.386Z,342.67
2022-11-24T02:12:16.254Z,337.65
2022-11-24T02:17:19.137Z,354.20
2022-11-24T02:22:40.615Z,349.92
2022-11-24T02:27:49.353Z,363.08
2022-11-24T02:32:55.067Z,353.92
2022-11-24T02:37:57.384Z,360.70
2022-11-24T02:43:06.730Z,345.70
2022-11-24T02:48:08.627Z,356.75
2022-11-24T02:53:14.706Z,339.65
2022-11-24T02:58:16.701Z,336.98
2022-11-24T03:03:19.015Z,345.70
2022-11-24T03:08:24.648Z,344.45
2022-11-24T03:13:27.709Z,351.58
2022-11-24T03:18:33.085Z,358.45
2022-11-24T03:23:34.979Z,351.15
2022-11-24T03:28:37.302Z,362.67
2022-11-24T03:33:39.398Z,358.20
2022-11-24T03:38:41.365Z,354.80
2022-11-24T03:43:44.249Z,355.08
2022-11-24T03:48:46.291Z,342.95
2022-11-24T03:53:48.176Z,347.25
2022-11-24T03:58:53.800Z,351.63
2022-11-24T04:03:55.678Z,332.70
2022-11-24T04:09:01.374Z,358.00
2022-11-24T04:14:03.325Z,341.77
2022-11-24T04:19:06.764Z,345.83
2022-11-24T04:24:08.832Z,357.55
2022-11-24T04:29:10.903Z,340.13
2022-11-24T04:34:12.877Z,345.67
2022-11-24T04:39:24.932Z,349.30
2022-11-24T04:44:32.715Z,349.45
2022-11-24T04:54:38.998Z,349.10
2022-11-24T04:59:40.923Z,338.70
2022-11-24T05:04:43.560Z,352.90
2022-11-24T05:10:04.186Z,354.77
2022-11-24T05:15:10.246Z,354.48
2022-11-24T05:20:12.610Z,358.40
2022-11-24T05:25:17.753Z,348.13
2022-11-24T05:30:21.280Z,348.10
2022-11-24T05:35:24.026Z,330.38
2022-11-24T05:40:26.044Z,349.80
2022-11-24T05:45:28.095Z,345.35
2022-11-24T05:50:29.998Z,338.98
2022-11-24T05:55:33.329Z,328.98
2022-11-24T06:00:38.224Z,336.80
2022-11-24T06:05:40.900Z,348.40
2022-11-24T06:10:42.840Z,336.25
2022-11-24T06:15:44.731Z,364.42
2022-11-24T06:21:09.716Z,333.60
2022-11-24T06:26:12.891Z,361.10
2022-11-24T06:31:21.158Z,350.63
2022-11-24T06:36:26.463Z,339.25
2022-11-24T06:41:30.507Z,350.67
2022-11-24T06:46:34.376Z,359.05
2022-11-24T06:51:36.952Z,346.92
2022-11-24T06:56:39.011Z,330.60
2022-11-24T07:02:04.185Z,329.55
2022-11-24T07:07:07.132Z,339.23
2022-11-24T07:12:09.630Z,373.65
2022-11-24T07:17:11.571Z,349.60
2022-11-24T07:22:13.471Z,343.48
2022-11-24T07:27:15.443Z,348.27
2022-11-24T07:32:17.419Z,363.00
2022-11-24T07:37:19.336Z,351.10
2022-11-24T07:42:22.290Z,348.50
2022-11-24T07:47:24.726Z,357.30
2022-11-24T07:52:26.979Z,353.27
2022-11-24T07:57:29.195Z,352.55
2022-11-24T08:02:31.198Z,356.65
2022-11-24T08:07:33.440Z,377.42
2022-11-24T08:12:35.386Z,365.88
2022-11-24T08:17:37.320Z,370.85
2022-11-24T08:22:39.305Z,356.80
2022-11-24T08:27:41.790Z,372.95
2022-11-24T08:32:44.742Z,371.45
2022-11-24T08:37:46.803Z,351.65
2022-11-24T08:42:48.764Z,385.40
2022-11-24T08:47:55.260Z,397.83
2022-11-24T08:53:01.019Z,372.50
2022-11-24T08:58:03.432Z,376.95
2022-11-24T09:03:07.386Z,389.50
2022-11-24T09:08:09.374Z,399.55
2022-11-24T09:13:11.324Z,373.88
2022-11-24T09:18:14.327Z,382.85
2022-11-24T09:23:17.763Z,385.00
2022-11-24T09:28:19.649Z,391.05
2022-11-24T09:33:22.466Z,407.60
2022-11-24T09:38:24.796Z,409.85
2022-11-24T09:43:46.039Z,427.15
2022-11-24T09:48:52.153Z,430.55
2022-11-24T09:54:09.386Z,435.45
2022-11-24T09:59:20.653Z,433.63
2022-11-24T10:04:25.349Z,448.50
2022-11-24T10:09:58.839Z,456.05
2022-11-24T10:15:16.293Z,442.00
2022-11-24T10:20:52.409Z,436.75
2022-11-24T10:25:58.349Z,430.00
2022-11-24T10:31:17.462Z,453.48
2022-11-24T10:36:54.411Z,459.95
2022-11-24T10:42:07.779Z,440.30
2022-11-24T10:47:23.026Z,474.65
2022-11-24T10:52:26.864Z,468.42
2022-11-24T10:57:30.187Z,484.08
2022-11-24T11:02:39.469Z,465.15
2022-11-24T11:07:41.690Z,450.50
2022-11-24T11:12:45.011Z,489.83
2022-11-24T11:17:52.469Z,502.23
2022-11-24T11:22:56.182Z,492.48
2022-11-24T11:28:19.291Z,502.23
2022-11-24T11:38:53.844Z,503.27
2022-11-24T11:44:09.152Z,522.17
2022-11-24T11:49:13.444Z,494.40
2022-11-24T11:54:35.059Z,531.55
2022-11-24T12:00:07.134Z,514.47
2022-11-24T12:05:38.772Z,542.67
2022-11-24T12:10:55.797Z,510.92
2022-11-24T12:16:14.093Z,3.13
2022-11-24T12:26:52.521Z,513.13
2022-11-24T12:32:31.849Z,509.95
2022-11-24T12:37:51.108Z,511.48
2022-11-24T12:42:55.960Z,506.65
2022-11-24T12:48:09.982Z,527.00
2022-11-24T12:53:23.349Z,522.95
2022-11-24T12:58:42.995Z,527.17
2022-11-24T13:04:09.485Z,513.00
2022-11-24T13:09:13.210Z,520.60
2022-11-24T13:14:16.695Z,496.10
2022-11-24T13:19:24.085Z,526.60
2022-11-24T13:24:30.875Z,523.15
2022-11-24T13:29:54.123Z,517.30
2022-11-24T13:35:12.209Z,497.03
2022-11-24T13:40:14.176Z,504.23
2022-11-24T13:45:38.945Z,509.20
2022-11-24T13:50:50.045Z,520.88
2022-11-24T13:56:01.712Z,494.45
2022-11-24T14:01:13.057Z,513.50
2022-11-24T14:06:47.525Z,516.00
2022-11-24T14:12:20.413Z,530.20
2022-11-24T14:17:27.672Z,501.67
2022-11-24T14:22:40.293Z,497.35
2022-11-24T14:27:42.787Z,501.38
2022-11-24T14:33:01.817Z,490.13
2022-11-24T14:38:13.060Z,494.73
2022-11-24T14:43:30.244Z,500.17
2022-11-24T14:48:36.986Z,496.65
2022-11-24T14:53:43.939Z,498.73
2022-11-24T14:58:45.867Z,496.23
2022-11-24T15:04:26.475Z,489.10
2022-11-24T15:10:01.827Z,480.23
2022-11-24T15:15:33.950Z,471.33
2022-11-24T15:20:44.665Z,460.75
2022-11-24T15:25:50.079Z,443.60
2022-11-24T15:31:13.186Z,481.48
2022-11-24T15:36:17.005Z,456.77
2022-11-24T15:41:26.620Z,487.67
2022-11-24T15:46:30.563Z,479.05
2022-11-24T15:51:35.137Z,478.63
2022-11-24T15:56:38.956Z,464.27
2022-11-24T16:01:42.732Z,486.58
2022-11-24T16:06:46.151Z,442.63
2022-11-24T16:11:48.394Z,444.85
2022-11-24T16:16:50.596Z,438.38
2022-11-24T16:21:55.393Z,423.00
2022-11-24T16:26:57.738Z,427.67
2022-11-24T16:31:59.904Z,429.92
2022-11-24T16:37:03.989Z,423.02
2022-11-24T16:42:06.621Z,409.85
2022-11-24T16:47:09.213Z,431.15
2022-11-24T16:52:15.405Z,435.85
2022-11-24T16:57:17.392Z,412.15
2022-11-24T17:02:20.858Z,368.40
2022-11-24T17:07:23.215Z,399.15
2022-11-24T17:12:30.388Z,416.90
2022-11-24T17:17:33.750Z,418.63
2022-11-24T17:22:36.705Z,415.35
2022-11-24T17:27:38.626Z,408.08
2022-11-24T17:32:40.918Z,407.98
2022-11-24T17:37:43.859Z,414.13
2022-11-24T17:42:46.967Z,396.98
2022-11-24T17:53:06.047Z,394.45
2022-11-24T17:58:10.088Z,390.42
2022-11-24T18:03:15.447Z,401.40
2022-11-24T18:08:18.478Z,384.92
2022-11-24T18:13:41.089Z,389.05
2022-11-24T18:18:48.835Z,392.30
2022-11-24T18:23:53.196Z,391.40
2022-11-24T18:28:55.155Z,375.75
2022-11-24T18:33:57.043Z,405.08
2022-11-24T18:39:04.746Z,404.60
2022-11-24T18:44:11.056Z,378.50
2022-11-24T18:49:13.059Z,381.08
2022-11-24T18:54:18.605Z,385.10
2022-11-24T18:59:22.036Z,378.98
2022-11-24T19:04:24.815Z,381.30
2022-11-24T19:09:27.531Z,384.95
2022-11-24T19:14:29.600Z,363.67
2022-11-24T19:19:34.269Z,368.33
2022-11-24T19:24:36.665Z,370.00
2022-11-24T19:29:44.643Z,372.27
2022-11-24T19:34:47.709Z,351.35
2022-11-24T19:39:50.267Z,361.27
2022-11-24T19:44:56.667Z,349.58
2022-11-24T19:49:59.848Z,348.17
2022-11-24T19:55:05.349Z,376.88
2022-11-24T20:00:16.719Z,364.08
2022-11-24T20:05:25.215Z,359.08
2022-11-24T20:10:27.337Z,355.80
2022-11-24T20:15:30.896Z,356.30
2022-11-24T20:20:33.144Z,347.60
2022-11-24T20:25:38.537Z,342.10
2022-11-24T20:30:41.756Z,339.45
2022-11-24T20:35:43.708Z,329.33
2022-11-24T20:40:46.067Z,350.67
2022-11-24T20:45:47.956Z,380.58
2022-11-24T20:50:51.589Z,364.77
2022-11-24T20:56:05.806Z,346.60
2022-11-24T21:01:09.664Z,378.17
2022-11-24T21:06:14.051Z,382.38
2022-11-24T21:11:17.768Z,366.98
2022-11-24T21:16:22.250Z,365.92
2022-11-24T21:21:26.049Z,375.17
2022-11-24T21:26:28.609Z,382.63
2022-11-24T21:31:31.682Z,358.10
2022-11-24T21:36:35.548Z,377.42
2022-11-24T21:41:41.498Z,380.33
2022-11-24T21:46:49.624Z,366.83
2022-11-24T21:52:04.353Z,378.15
2022-11-24T21:57:08.394Z,370.08
2022-11-24T22:02:13.253Z,368.77
2022-11-24T22:07:16.076Z,361.00
2022-11-24T22:12:18.274Z,376.63
2022-11-24T22:17:20.161Z,358.30
2022-11-24T22:22:22.024Z,367.23
2022-11-24T22:27:23.927Z,378.90
2022-11-24T22:32:25.873Z,349.77
2022-11-24T22:37:29.263Z,359.58
2022-11-24T22:42:31.213Z,354.00
2022-11-24T22:47:33.135Z,355.10
2022-11-24T22:52:37.738Z,366.17
2022-11-24T22:57:39.704Z,370.05
2022-11-24T23:02:41.700Z,366.52
2022-11-24T23:07:43.718Z,369.83
2022-11-24T23:12:45.879Z,385.83
2022-11-24T23:17:50.609Z,378.13
2022-11-24T23:22:55.394Z,374.20
2022-11-24T23:28:00.235Z,373.45
2022-11-24T23:33:02.476Z,374.10
2022-11-24T23:38:07.720Z,373.88
2022-11-24T23:43:14.348Z,374.30
2022-11-24T23:48:17.336Z,372.27
2022-11-24T23:53:20.271Z,368.65
2022-11-24T23:58:24.062Z,392.73
